South Manitou, Michigan
Current Conditions -  °F | °C
As of 5:53 AM on Sunday 23 Nov 2014 (Local Time) from KTVC Reporting Station
Haze Haze  
Wind Chill: 46°   Ceiling: 800
Heat Index: 46°   Visibility: 3mi
Dew Point: 43°   Wind: 0mph
Humidity: 89%   Direction: NA
Pressure: 29.73"   Gusts: NA
Location:  45.1128°N, 86.0164°W
Report Text: KTVC 231053Z AUTO 00000KT 3SM BR OVC008 08/06 A2973 RMK AO2 SLP070 T00780061
Loading
Personal Weather Stations






























Interactive Weather Map New forecast layout! Learn more

10-Day Weather Forecast

Advertisements
Track Severe Weather on mobile